メインページ
METAR-TAF:

METAR-TAF

空港 :

ハルツーム国際空港

ハルツーム, スーダン

緯度: 15-36N, 経度: 032-33E, 海抜: 382m

現時点の気象観測

当レポートは24分前の11:30(UTC)に作成
の風 11kt
気温 31°C
湿度 9%
気圧 1014 hPa
視程10km以上
1,500メートル以下は雲なし、積乱雲なし

METAR: HSSS 141130Z 35011KT CAVOK 31/M05 Q1014 NOSIG

時間: 13:54 (11:54 UTC)

予報

当レポートは54分前の11:00(UTC)に作成
予報は14日の 12時(UTC)から 15日の 18時(UTC)まで有効
の風 10kt、最大20ktの突風を伴う
視程10km以上
1,500メートル以下は雲なし、積乱雲なし

TAF: HSSS 141100Z 1412/1518 36010G20KT CAVOK

4,000以上の空港の気象観測と天気予報(METAR報とTAF報)

利用可能な観測所は地図上に黄色い丸と赤い丸で示す。

丸の上にカーソルを重ねると観測所名を参照できる。

次にクリックすると気象観測と天気予報を参照できる。

マップの切り替え:黒色「×」印の緑ボタンをクリックして拡大、「-」印の緑ボタンをクリックして縮小、緑色の三角印をクリックして隣りの地図に切り替え


METAR-TAF: